Terminal Aerodrome Forecast
Issued by NWS

Home | Current Version | Previous Version | Text Only | Print | Product List | Glossary On
Versions: 1 2 3 4 5 6 7 8 9 10 11 12 13 14
811
FTUS45 KABQ 251740
TAFROW
TAF
KROW 251740Z 2518/2618 16013KT P6SM SCT250
     FM252000 17015G23KT P6SM SCT250
     FM260100 19010KT P6SM SCT200
     FM260900 28007KT P6SM SKC
     FM261600 28012G22KT P6SM SKC=

USA.gov is the U.S. government's official web portal to all federal, state and local government web resources and services.